Time;durP1;ratioP1;P1;durP2;ratioP2;P2;SDS_P1;SDS_P2;PMS_P1;PMS_P2;Temp;Humidity;BMP_temperature;BMP_pressure;BME280_temperature;BME280_humidity;BME280_pressure;Samples;Min_cycle;Max_cycle;Signal;HPM_P1;HPM_P2
2023/03/10 00:00:00;;;;;;;2.40;1.40;;;10.00;99.90;;;;;;5078824;28;20467;-71
2023/03/10 00:02:31;;;;;;;2.35;1.23;;;10.00;99.90;;;;;;5091358;28;20436;-69
2023/03/10 00:04:58;;;;;;;2.20;0.90;;;10.00;99.90;;;;;;5099300;28;20429;-68
2023/03/10 00:07:25;;;;;;;2.20;1.30;;;10.00;99.90;;;;;;5091928;28;20412;-69
2023/03/10 00:09:52;;;;;;;2.30;1.00;;;10.00;99.90;;;;;;5081938;28;20454;-68
2023/03/10 00:12:18;;;;;;;1.90;1.00;;;10.00;99.90;;;;;;5071171;28;20421;-68
2023/03/10 00:14:46;;;;;;;2.25;1.00;;;10.00;99.90;;;;;;5073195;28;20429;-68
2023/03/10 00:17:13;;;;;;;1.73;1.00;;;9.90;99.90;;;;;;5075657;28;20437;-68
2023/03/10 00:19:40;;;;;;;1.67;0.90;;;10.00;99.90;;;;;;5091415;28;20407;-69
2023/03/10 00:22:07;;;;;;;2.08;1.08;;;9.90;99.90;;;;;;5090697;28;20804;-68
2023/03/10 00:24:33;;;;;;;2.40;1.15;;;9.90;99.90;;;;;;5092630;28;20421;-70
2023/03/10 00:27:00;;;;;;;1.58;0.82;;;9.90;99.90;;;;;;5094060;28;20433;-67
2023/03/10 00:29:27;;;;;;;1.80;0.80;;;9.90;99.90;;;;;;5075297;28;20955;-68
2023/03/10 00:31:55;;;;;;;1.40;0.80;;;9.90;99.90;;;;;;5072276;28;20444;-68
2023/03/10 00:34:22;;;;;;;1.10;0.70;;;9.90;99.90;;;;;;5050178;28;20499;-68
2023/03/10 00:36:48;;;;;;;1.70;1.00;;;9.90;99.90;;;;;;5077458;22;20835;-68
2023/03/10 00:39:16;;;;;;;1.20;0.88;;;9.90;99.90;;;;;;5082442;28;20423;-68
2023/03/10 00:41:43;;;;;;;1.40;0.80;;;9.80;99.90;;;;;;5071475;28;20810;-68
2023/03/10 00:44:09;;;;;;;1.30;0.80;;;9.90;99.90;;;;;;5097919;28;20434;-68
2023/03/10 00:46:38;;;;;;;1.10;0.90;;;9.90;99.90;;;;;;5106522;28;20783;-68
2023/03/10 00:49:06;;;;;;;1.60;0.80;;;9.90;99.90;;;;;;5111404;28;20509;-68
2023/03/10 00:51:34;;;;;;;1.40;0.80;;;9.90;99.90;;;;;;5111592;28;20419;-69
2023/03/10 00:54:01;;;;;;;1.90;0.63;;;9.90;99.90;;;;;;5110295;28;20419;-69
2023/03/10 00:56:29;;;;;;;2.15;0.70;;;10.00;99.90;;;;;;5096029;28;20429;-69
2023/03/10 00:58:58;;;;;;;0.70;0.50;;;10.10;99.90;;;;;;5092440;28;20421;-71
2023/03/10 01:01:26;;;;;;;1.00;0.50;;;10.10;99.90;;;;;;5111320;28;20420;-68
2023/03/10 01:03:54;;;;;;;0.60;0.50;;;10.10;99.90;;;;;;5110377;28;20415;-69
2023/03/10 01:06:23;;;;;;;1.10;0.60;;;10.10;99.90;;;;;;5105933;28;20420;-68
2023/03/10 01:08:50;;;;;;;1.15;0.70;;;10.10;99.90;;;;;;5090691;28;20414;-69
2023/03/10 01:11:19;;;;;;;1.10;0.50;;;10.00;99.90;;;;;;5089615;28;20762;-68
2023/03/10 01:13:46;;;;;;;1.17;0.60;;;10.00;99.90;;;;;;5101557;28;20724;-69
2023/03/10 01:16:13;;;;;;;1.50;0.50;;;10.00;99.90;;;;;;5069929;28;20706;-68
2023/03/10 01:18:42;;;;;;;0.77;0.50;;;10.00;99.90;;;;;;5070463;28;20415;-68
2023/03/10 01:21:15;;;;;;;1.50;0.60;;;10.00;99.90;;;;;;5071018;28;20416;-68
2023/03/10 01:23:44;;;;;;;0.90;0.50;;;9.90;99.90;;;;;;5068256;28;20418;-67
2023/03/10 01:26:10;;;;;;;1.30;0.70;;;9.90;99.90;;;;;;5086802;28;20439;-68
2023/03/10 01:28:37;;;;;;;1.20;0.57;;;9.90;99.90;;;;;;5096499;28;20441;-67
2023/03/10 01:31:06;;;;;;;0.93;0.57;;;9.90;99.90;;;;;;5091547;28;20426;-68
2023/03/10 01:33:33;;;;;;;0.90;0.60;;;9.90;99.90;;;;;;5090606;28;20565;-67
2023/03/10 01:36:00;;;;;;;1.80;0.60;;;10.00;99.90;;;;;;5092967;28;20919;-69
2023/03/10 01:38:27;;;;;;;0.90;0.50;;;10.00;99.90;;;;;;5091350;28;20753;-67
2023/03/10 01:40:55;;;;;;;0.90;0.50;;;9.90;99.90;;;;;;5097525;28;20424;-67
2023/03/10 01:43:27;;;;;;;1.00;0.80;;;10.00;99.90;;;;;;5079996;28;20428;-67
2023/03/10 01:46:44;;;;;;;0.80;0.52;;;10.00;99.90;;;;;;5087474;28;20410;-67
2023/03/10 01:49:22;;;;;;;0.90;0.60;;;10.00;99.90;;;;;;5054425;28;20423;-68
2023/03/10 01:51:54;;;;;;;1.50;0.70;;;10.00;99.90;;;;;;5090697;28;20891;-67
2023/03/10 01:54:24;;;;;;;1.07;0.60;;;10.00;99.90;;;;;;5091947;28;20461;-68
2023/03/10 01:56:54;;;;;;;1.10;0.50;;;10.00;99.90;;;;;;5101599;28;20424;-68
2023/03/10 01:59:21;;;;;;;0.70;0.57;;;10.00;99.90;;;;;;5108522;28;20875;-68
2023/03/10 02:01:50;;;;;;;0.80;0.50;;;10.00;99.90;;;;;;5110057;28;20423;-68
2023/03/10 02:04:22;;;;;;;1.40;0.60;;;10.00;99.90;;;;;;5109869;28;20447;-67
2023/03/10 02:06:51;;;;;;;0.80;0.60;;;10.00;99.90;;;;;;5101398;28;20416;-70
2023/03/10 02:09:19;;;;;;;0.90;0.70;;;10.00;99.90;;;;;;5093322;28;20434;-68
2023/03/10 02:11:47;;;;;;;1.50;0.70;;;10.00;99.90;;;;;;5097435;28;20422;-70
2023/03/10 02:14:16;;;;;;;1.30;0.70;;;10.00;99.90;;;;;;5089681;28;20748;-67
2023/03/10 02:16:43;;;;;;;1.85;0.75;;;9.90;99.90;;;;;;5087806;28;20406;-67
2023/03/10 02:19:22;;;;;;;1.38;0.80;;;9.90;99.90;;;;;;5085116;28;20406;-68
2023/03/10 02:21:57;;;;;;;1.10;0.70;;;10.00;99.90;;;;;;5089480;28;20444;-67
2023/03/10 02:24:29;;;;;;;1.02;0.60;;;10.00;99.90;;;;;;5094862;28;20426;-68
2023/03/10 02:27:01;;;;;;;1.00;0.80;;;10.00;99.90;;;;;;5107416;28;20416;-69
2023/03/10 02:29:34;;;;;;;0.80;0.70;;;10.10;99.90;;;;;;5109538;28;20409;-68
2023/03/10 02:32:01;;;;;;;1.00;0.70;;;10.10;99.90;;;;;;5111195;28;20604;-67
2023/03/10 02:34:28;;;;;;;1.05;0.70;;;10.20;99.90;;;;;;5112130;28;20411;-68
2023/03/10 02:36:55;;;;;;;2.15;0.70;;;10.20;99.90;;;;;;5108575;28;20411;-68
2023/03/10 02:39:22;;;;;;;1.60;0.80;;;10.20;99.90;;;;;;5097045;28;20872;-68
2023/03/10 02:41:49;;;;;;;1.60;1.00;;;10.30;99.90;;;;;;5100412;28;20448;-68
2023/03/10 02:44:20;;;;;;;1.60;0.90;;;10.20;99.90;;;;;;5089446;28;20795;-69
2023/03/10 02:46:48;;;;;;;2.75;1.10;;;10.10;99.90;;;;;;5099125;28;20799;-69
2023/03/10 02:49:19;;;;;;;3.63;1.00;;;10.00;99.90;;;;;;5111420;28;20416;-69
2023/03/10 02:51:47;;;;;;;3.00;1.60;;;9.90;99.90;;;;;;5102176;28;20713;-69
2023/03/10 02:54:14;;;;;;;3.70;1.30;;;9.80;99.90;;;;;;5100012;28;20419;-70
2023/03/10 02:56:42;;;;;;;3.42;1.90;;;9.70;99.90;;;;;;5109531;28;20412;-69
2023/03/10 02:59:09;;;;;;;5.87;1.90;;;9.70;99.90;;;;;;5110381;28;20435;-69
2023/03/10 03:01:37;;;;;;;3.80;2.40;;;9.70;99.90;;;;;;5114092;28;20408;-69
2023/03/10 03:04:05;;;;;;;5.10;1.52;;;9.70;99.90;;;;;;5115155;28;20412;-68
2023/03/10 03:06:32;;;;;;;2.80;1.70;;;9.60;99.90;;;;;;5106091;28;20434;-69
2023/03/10 03:08:58;;;;;;;4.07;1.58;;;9.70;99.90;;;;;;5104229;28;20421;-69
2023/03/10 03:11:25;;;;;;;4.20;1.92;;;9.60;99.90;;;;;;5108794;28;20424;-69
2023/03/10 03:13:52;;;;;;;4.90;1.95;;;9.60;99.90;;;;;;5087840;28;20409;-68
2023/03/10 03:16:19;;;;;;;8.27;1.73;;;9.60;99.90;;;;;;5089021;28;20699;-68
2023/03/10 03:18:45;;;;;;;5.88;1.90;;;9.60;99.90;;;;;;5095317;28;20417;-68
2023/03/10 03:21:16;;;;;;;5.82;2.00;;;9.60;99.90;;;;;;5096233;28;20947;-68
2023/03/10 03:23:43;;;;;;;4.88;2.00;;;9.50;99.90;;;;;;5103381;28;20466;-69
2023/03/10 03:26:16;;;;;;;6.20;1.90;;;9.50;99.90;;;;;;5109722;28;20412;-68
2023/03/10 03:28:44;;;;;;;4.23;1.90;;;9.40;99.90;;;;;;5108786;28;20917;-69
2023/03/10 03:31:15;;;;;;;4.45;1.90;;;9.50;99.90;;;;;;5108379;28;20433;-68
2023/03/10 03:33:41;;;;;;;5.00;2.05;;;9.50;99.90;;;;;;5108535;28;20408;-67
2023/03/10 03:36:08;;;;;;;4.68;1.60;;;9.40;99.90;;;;;;5097428;28;20432;-69
2023/03/10 03:38:36;;;;;;;5.38;1.80;;;9.40;99.90;;;;;;5096778;28;20799;-69
2023/03/10 03:41:04;;;;;;;4.93;2.10;;;9.40;99.90;;;;;;5104277;28;20435;-68
2023/03/10 03:43:31;;;;;;;3.60;1.80;;;9.40;99.90;;;;;;5089102;28;20417;-68
2023/03/10 03:45:57;;;;;;;3.80;2.08;;;9.40;99.90;;;;;;5088751;28;20418;-68
2023/03/10 03:48:24;;;;;;;5.43;2.20;;;9.30;99.90;;;;;;5093092;28;20413;-69
2023/03/10 03:50:51;;;;;;;4.70;1.77;;;9.30;99.90;;;;;;5089678;28;20441;-68
2023/03/10 03:53:18;;;;;;;3.17;1.40;;;9.30;99.90;;;;;;5099782;28;20416;-68
2023/03/10 03:55:46;;;;;;;3.88;1.70;;;9.30;99.90;;;;;;5108404;28;20405;-69
2023/03/10 03:58:12;;;;;;;4.60;1.33;;;9.30;99.90;;;;;;5107941;28;20425;-68
2023/03/10 04:00:39;;;;;;;3.75;1.67;;;9.20;99.90;;;;;;5095494;28;20453;-69
2023/03/10 04:03:06;;;;;;;4.80;1.30;;;9.20;99.90;;;;;;5097798;28;20432;-68
2023/03/10 04:05:33;;;;;;;3.20;1.40;;;9.20;99.90;;;;;;5101689;28;20421;-70
2023/03/10 04:08:00;;;;;;;4.53;1.42;;;9.10;99.90;;;;;;5098564;28;20424;-67
2023/03/10 04:10:27;;;;;;;3.57;1.10;;;9.10;99.90;;;;;;5106762;28;20420;-69
2023/03/10 04:12:56;;;;;;;3.60;1.20;;;9.00;99.90;;;;;;5093813;28;20876;-68
2023/03/10 04:15:23;;;;;;;4.82;1.15;;;9.00;99.90;;;;;;5094706;28;20430;-69
2023/03/10 04:17:50;;;;;;;3.97;1.70;;;9.00;99.90;;;;;;5104511;28;20422;-68
2023/03/10 04:20:17;;;;;;;4.50;1.90;;;8.90;99.90;;;;;;5107236;28;20467;-68
2023/03/10 04:22:44;;;;;;;2.92;1.40;;;8.90;99.90;;;;;;5092494;28;20416;-68
2023/03/10 04:25:12;;;;;;;4.65;1.80;;;8.80;99.90;;;;;;5099632;28;20423;-68
2023/03/10 04:27:38;;;;;;;5.22;1.60;;;8.80;99.90;;;;;;5108623;28;20412;-68
2023/03/10 04:30:09;;;;;;;5.20;1.77;;;8.80;99.90;;;;;;5104628;28;20430;-68
2023/03/10 04:32:35;;;;;;;6.18;2.10;;;8.80;99.90;;;;;;5099043;28;20500;-67
2023/03/10 04:35:02;;;;;;;5.10;2.70;;;8.80;99.90;;;;;;5108069;28;20435;-68
2023/03/10 04:37:29;;;;;;;5.68;2.17;;;8.80;99.90;;;;;;5097273;28;20951;-69
2023/03/10 04:39:56;;;;;;;4.32;1.80;;;8.80;99.90;;;;;;5094174;28;20473;-68
2023/03/10 04:42:25;;;;;;;6.72;2.42;;;8.80;99.90;;;;;;5090838;28;20441;-70
2023/03/10 04:44:52;;;;;;;5.45;2.20;;;8.80;99.90;;;;;;5084678;28;20422;-68
2023/03/10 04:47:20;;;;;;;7.30;2.50;;;8.70;99.90;;;;;;5088034;28;20425;-67
2023/03/10 04:49:47;;;;;;;5.95;2.80;;;8.70;99.90;;;;;;5101345;28;20413;-67
2023/03/10 04:52:13;;;;;;;4.68;2.40;;;8.70;99.90;;;;;;5094464;28;20421;-67
2023/03/10 04:54:40;;;;;;;7.25;2.70;;;8.70;99.90;;;;;;5106984;28;20457;-68
2023/03/10 04:57:07;;;;;;;6.22;2.80;;;8.70;99.90;;;;;;5092280;28;20410;-68
2023/03/10 04:59:33;;;;;;;5.00;2.10;;;8.70;99.90;;;;;;5091402;28;20425;-67
2023/03/10 05:02:00;;;;;;;4.78;2.55;;;8.80;99.90;;;;;;5091480;28;20410;-68
2023/03/10 05:04:28;;;;;;;6.57;2.63;;;8.80;99.90;;;;;;5097440;28;20434;-67
2023/03/10 05:06:55;;;;;;;6.60;3.00;;;8.80;99.90;;;;;;5096408;28;20428;-67
2023/03/10 05:09:22;;;;;;;5.80;2.00;;;8.80;99.90;;;;;;5082337;28;20445;-67
2023/03/10 05:11:48;;;;;;;5.55;2.63;;;8.80;99.90;;;;;;5089855;28;20426;-67
2023/03/10 05:14:16;;;;;;;3.88;2.67;;;8.80;99.90;;;;;;5074573;28;20431;-67
2023/03/10 05:16:43;;;;;;;6.00;2.40;;;8.90;99.90;;;;;;5075809;28;20426;-68
2023/03/10 05:19:10;;;;;;;5.73;2.63;;;8.90;99.90;;;;;;5091789;28;20424;-68
2023/03/10 05:21:38;;;;;;;6.32;2.30;;;8.90;99.90;;;;;;5094656;28;20779;-68
2023/03/10 05:24:05;;;;;;;4.25;2.10;;;8.90;99.90;;;;;;5078293;28;20414;-68
2023/03/10 05:26:31;;;;;;;5.00;2.35;;;8.90;99.90;;;;;;5077083;28;20421;-68
2023/03/10 05:28:58;;;;;;;4.95;1.90;;;8.90;99.90;;;;;;5090537;28;20769;-67
2023/03/10 05:31:25;;;;;;;4.10;2.35;;;8.90;99.90;;;;;;5086547;28;20427;-68
2023/03/10 05:33:52;;;;;;;5.25;2.28;;;8.90;99.90;;;;;;5090918;28;20435;-68
2023/03/10 05:36:19;;;;;;;3.70;1.90;;;8.90;99.90;;;;;;5092885;28;20439;-68
2023/03/10 05:38:47;;;;;;;6.80;2.17;;;9.00;99.90;;;;;;5078675;28;20935;-67
2023/03/10 05:41:14;;;;;;;6.43;2.10;;;9.00;99.90;;;;;;5093258;28;20431;-68
2023/03/10 05:43:41;;;;;;;6.57;2.35;;;9.00;99.90;;;;;;5098043;28;20731;-67
2023/03/10 05:46:08;;;;;;;5.63;2.78;;;9.00;99.90;;;;;;5093390;28;20435;-68
2023/03/10 05:48:35;;;;;;;4.57;2.00;;;9.00;99.90;;;;;;5088488;28;20421;-69
2023/03/10 05:51:04;;;;;;;5.72;2.40;;;9.10;99.90;;;;;;5086642;28;20430;-67
2023/03/10 05:53:32;;;;;;;5.50;2.60;;;9.10;99.90;;;;;;5089313;28;20498;-68
2023/03/10 05:56:04;;;;;;;4.75;2.10;;;9.10;99.90;;;;;;5075957;28;20449;-68
2023/03/10 05:58:30;;;;;;;5.05;2.78;;;9.10;99.90;;;;;;5076389;28;20426;-68
2023/03/10 06:00:57;;;;;;;7.05;3.13;;;9.10;99.90;;;;;;5084579;28;20921;-68
2023/03/10 06:03:24;;;;;;;8.65;2.75;;;9.10;99.90;;;;;;5082018;28;20406;-67
2023/03/10 06:05:51;;;;;;;4.07;2.10;;;9.10;99.90;;;;;;5083254;28;20576;-67
2023/03/10 06:08:17;;;;;;;4.80;2.40;;;9.10;99.90;;;;;;5076969;28;20789;-67
2023/03/10 06:10:44;;;;;;;5.50;1.98;;;9.20;99.90;;;;;;5074922;28;20432;-69
2023/03/10 06:13:12;;;;;;;5.38;2.13;;;9.20;99.90;;;;;;5072430;28;20502;-69
2023/03/10 06:15:40;;;;;;;5.28;1.90;;;9.30;99.90;;;;;;5071939;28;20422;-66
2023/03/10 06:18:07;;;;;;;4.22;1.60;;;9.30;99.90;;;;;;5081545;28;20447;-66
2023/03/10 06:20:33;;;;;;;4.93;1.80;;;9.30;99.90;;;;;;5082689;28;20419;-67
2023/03/10 06:23:00;;;;;;;5.30;2.00;;;9.30;99.90;;;;;;5083529;28;20414;-68
2023/03/10 06:25:27;;;;;;;4.13;1.60;;;9.30;99.90;;;;;;5085462;28;20444;-68
2023/03/10 06:27:54;;;;;;;4.15;2.40;;;9.30;99.90;;;;;;5094238;28;20849;-67
2023/03/10 06:30:22;;;;;;;3.95;2.00;;;9.30;99.90;;;;;;5094066;28;20939;-67
2023/03/10 06:32:49;;;;;;;3.70;1.80;;;9.30;99.90;;;;;;5090833;28;20431;-67
2023/03/10 06:35:16;;;;;;;4.18;1.55;;;9.20;99.90;;;;;;5087721;28;20901;-67
2023/03/10 06:37:43;;;;;;;5.75;1.60;;;9.30;99.90;;;;;;5102739;22;20446;-69
2023/03/10 06:40:13;;;;;;;4.30;1.90;;;9.30;99.90;;;;;;5083719;28;20418;-69
2023/03/10 06:42:40;;;;;;;3.70;1.63;;;9.30;99.90;;;;;;5086440;28;20410;-69
2023/03/10 06:45:09;;;;;;;2.80;1.60;;;9.30;99.90;;;;;;5090144;28;20523;-70
2023/03/10 06:47:37;;;;;;;3.40;1.40;;;9.30;99.90;;;;;;5085189;28;20421;-69
2023/03/10 06:50:05;;;;;;;4.33;1.50;;;9.30;99.90;;;;;;5079581;28;20415;-69
2023/03/10 06:52:33;;;;;;;3.55;1.30;;;9.30;99.90;;;;;;5083587;28;20475;-67
2023/03/10 06:55:00;;;;;;;2.50;1.50;;;9.30;99.90;;;;;;5081361;28;20435;-67
2023/03/10 06:57:28;;;;;;;4.70;1.60;;;9.30;99.90;;;;;;5064134;28;20481;-71
2023/03/10 06:59:54;;;;;;;4.63;1.50;;;9.30;99.90;;;;;;5071259;28;20443;-68
2023/03/10 07:02:22;;;;;;;3.35;1.40;;;9.40;99.90;;;;;;5072321;28;20426;-69
2023/03/10 07:04:50;;;;;;;3.65;1.50;;;9.40;99.90;;;;;;5073983;28;20428;-69
2023/03/10 07:07:16;;;;;;;2.72;1.50;;;9.40;99.90;;;;;;5065036;28;20435;-66
2023/03/10 07:09:44;;;;;;;2.92;1.83;;;9.40;99.90;;;;;;5067848;28;20435;-69
2023/03/10 07:12:11;;;;;;;5.05;2.25;;;9.40;99.90;;;;;;5066330;28;20463;-70
2023/03/10 07:14:38;;;;;;;2.50;1.40;;;9.40;99.90;;;;;;5068525;28;20440;-70
2023/03/10 07:17:05;;;;;;;4.07;1.90;;;9.50;99.90;;;;;;5060539;28;20451;-70
2023/03/10 07:19:32;;;;;;;4.90;1.80;;;9.40;99.90;;;;;;5066190;28;20462;-69
2023/03/10 07:22:00;;;;;;;3.33;1.77;;;9.40;99.90;;;;;;5074215;28;20407;-70
2023/03/10 07:24:27;;;;;;;4.30;2.17;;;9.40;99.90;;;;;;5080627;28;20408;-70
2023/03/10 07:26:54;;;;;;;2.53;1.40;;;9.50;99.90;;;;;;5071631;28;20462;-70
2023/03/10 07:29:20;;;;;;;2.10;1.40;;;9.50;99.90;;;;;;5083983;28;20439;-71
2023/03/10 07:31:47;;;;;;;3.97;1.88;;;9.50;99.90;;;;;;5070575;28;20431;-69
2023/03/10 07:34:14;;;;;;;2.70;1.70;;;9.50;99.90;;;;;;5079002;28;20888;-74
2023/03/10 07:36:41;;;;;;;3.20;1.63;;;9.50;99.90;;;;;;5083206;28;20553;-77
2023/03/10 07:39:09;;;;;;;2.85;1.65;;;9.50;99.90;;;;;;5082005;28;20678;-76
2023/03/10 07:41:36;;;;;;;4.32;1.80;;;9.50;99.90;;;;;;5077609;28;20423;-60
2023/03/10 07:44:02;;;;;;;4.00;1.98;;;9.50;99.90;;;;;;5071818;28;20862;-61
2023/03/10 07:46:29;;;;;;;4.35;2.00;;;9.70;99.90;;;;;;5069666;28;20431;-64
2023/03/10 07:48:58;;;;;;;3.40;1.83;;;9.70;99.90;;;;;;5083852;28;20425;-63
2023/03/10 07:51:26;;;;;;;2.45;1.60;;;9.80;99.90;;;;;;5075289;28;20451;-63
2023/03/10 07:53:54;;;;;;;2.78;1.40;;;9.80;99.90;;;;;;5078093;28;20494;-78
2023/03/10 07:56:22;;;;;;;2.60;1.20;;;9.80;99.90;;;;;;5078515;28;20431;-79
2023/03/10 07:58:49;;;;;;;2.80;1.20;;;9.80;99.90;;;;;;5092245;28;20442;-79
2023/03/10 08:01:18;;;;;;;2.40;1.40;;;9.80;99.90;;;;;;5087473;28;20430;-78
2023/03/10 08:03:45;;;;;;;2.95;1.70;;;9.80;99.90;;;;;;5078769;28;20920;-79
2023/03/10 08:06:17;;;;;;;3.30;1.70;;;9.80;99.90;;;;;;5086401;28;20476;-78
2023/03/10 08:08:43;;;;;;;3.03;1.60;;;9.80;99.90;;;;;;5079436;28;20435;-78
2023/03/10 08:11:12;;;;;;;2.40;1.63;;;9.70;99.90;;;;;;5079527;28;20442;-76
2023/03/10 08:13:40;;;;;;;2.90;1.60;;;9.80;99.90;;;;;;5073750;28;20429;-76
2023/03/10 08:16:08;;;;;;;3.50;1.60;;;10.00;99.90;;;;;;5075708;28;20439;-76
2023/03/10 08:18:35;;;;;;;2.78;1.85;;;10.40;99.90;;;;;;5070395;28;22222;-76
2023/03/10 08:21:05;;;;;;;3.03;1.40;;;10.80;99.90;;;;;;5065650;28;20419;-76
2023/03/10 08:23:32;;;;;;;4.38;2.50;;;11.00;99.90;;;;;;5073614;28;20485;-77
2023/03/10 08:26:00;;;;;;;4.53;2.10;;;11.10;99.90;;;;;;5064590;28;20447;-76
2023/03/10 08:28:29;;;;;;;2.33;1.40;;;11.20;99.90;;;;;;5066956;28;20624;-75
2023/03/10 08:30:59;;;;;;;3.05;1.50;;;11.30;99.90;;;;;;5069238;28;20842;-75
2023/03/10 08:33:27;;;;;;;2.90;1.60;;;11.20;99.90;;;;;;5072017;28;20427;-78
2023/03/10 08:36:02;;;;;;;4.88;1.70;;;11.30;99.90;;;;;;5060892;28;20905;-77
2023/03/10 08:38:29;;;;;;;3.60;1.67;;;11.60;99.90;;;;;;5059655;28;20638;-77
2023/03/10 08:40:56;;;;;;;2.40;1.63;;;11.90;99.90;;;;;;5067493;28;20929;-77
2023/03/10 08:43:23;;;;;;;3.53;1.90;;;12.30;99.90;;;;;;5063820;28;20956;-77
2023/03/10 08:45:50;;;;;;;2.80;1.60;;;12.70;98.80;;;;;;5067320;28;21030;-78
2023/03/10 08:48:18;;;;;;;4.72;1.90;;;12.80;95.70;;;;;;5067778;28;20411;-78
2023/03/10 08:50:45;;;;;;;5.10;1.90;;;12.80;95.50;;;;;;5068324;28;20439;-77
2023/03/10 08:53:12;;;;;;;4.28;1.45;;;12.90;95.60;;;;;;5067616;28;20917;-77
2023/03/10 08:55:39;;;;;;;3.72;1.70;;;12.90;93.50;;;;;;5087510;28;20864;-77
2023/03/10 08:58:05;;;;;;;3.50;1.48;;;12.90;94.20;;;;;;5071205;28;20519;-78
2023/03/10 09:00:32;;;;;;;3.45;1.30;;;12.90;92.40;;;;;;5068273;28;20415;-78
2023/03/10 09:02:59;;;;;;;3.10;1.50;;;13.10;92.00;;;;;;5079044;28;20442;-78
2023/03/10 09:05:27;;;;;;;2.88;1.50;;;12.90;92.60;;;;;;5066858;28;20442;-77
2023/03/10 09:07:54;;;;;;;3.50;1.30;;;12.80;92.50;;;;;;5076700;28;20414;-78
2023/03/10 09:10:22;;;;;;;3.10;1.50;;;12.80;92.00;;;;;;5079074;28;20440;-78
2023/03/10 09:12:49;;;;;;;3.10;1.30;;;12.90;91.90;;;;;;5079896;28;20433;-78
2023/03/10 09:15:15;;;;;;;2.53;1.20;;;13.00;91.60;;;;;;5069392;28;20438;-77
2023/03/10 09:17:42;;;;;;;3.00;1.20;;;13.00;92.10;;;;;;5071633;28;20434;-78
2023/03/10 09:20:10;;;;;;;4.18;1.30;;;13.00;89.40;;;;;;5073151;28;20470;-77
2023/03/10 09:22:38;;;;;;;4.13;1.52;;;13.10;90.30;;;;;;5076089;28;20470;-78
2023/03/10 09:25:05;;;;;;;3.22;1.70;;;13.20;88.90;;;;;;5079857;28;20425;-75
2023/03/10 09:27:32;;;;;;;4.27;1.50;;;13.20;87.50;;;;;;5085009;28;20919;-75
2023/03/10 09:29:59;;;;;;;3.63;1.50;;;13.20;90.90;;;;;;5075199;28;20416;-77
2023/03/10 09:32:26;;;;;;;4.38;1.52;;;13.30;90.00;;;;;;5078243;28;20425;-77
2023/03/10 09:34:52;;;;;;;2.40;1.20;;;13.30;87.50;;;;;;5074297;28;20431;-76
2023/03/10 09:37:19;;;;;;;4.38;1.30;;;13.20;86.90;;;;;;5065189;28;20426;-76
2023/03/10 09:39:47;;;;;;;3.17;1.50;;;13.20;85.30;;;;;;5078267;28;20421;-77
2023/03/10 09:42:36;;;;;;;3.33;1.00;;;13.20;85.50;;;;;;5065621;28;20479;-77
2023/03/10 09:45:24;;;;;;;2.70;1.13;;;13.30;84.70;;;;;;5081648;28;20884;-77
2023/03/10 09:48:04;;;;;;;2.53;1.10;;;13.40;81.70;;;;;;5082271;28;20406;-77
2023/03/10 09:50:34;;;;;;;3.00;1.40;;;13.40;82.20;;;;;;5060759;28;20411;-76
2023/03/10 09:53:07;;;;;;;3.35;1.20;;;13.40;83.60;;;;;;5079457;28;20432;-77
2023/03/10 09:55:39;;;;;;;2.80;1.20;;;13.40;80.70;;;;;;5085407;28;20530;-76
2023/03/10 09:58:12;;;;;;;4.07;1.50;;;13.30;81.10;;;;;;5082351;28;20514;-76
2023/03/10 10:00:41;;;;;;;2.97;1.10;;;13.40;84.20;;;;;;5069682;28;20523;-76
2023/03/10 10:03:17;;;;;;;4.57;1.85;;;13.60;84.30;;;;;;5066571;28;20862;-76
2023/03/10 10:05:44;;;;;;;3.42;1.30;;;13.80;76.90;;;;;;5069704;28;20423;-76
2023/03/10 10:08:21;;;;;;;2.30;1.10;;;13.80;77.80;;;;;;5079333;28;20496;-76
2023/03/10 10:10:53;;;;;;;2.45;1.20;;;13.70;77.80;;;;;;5078237;28;20437;-75
2023/03/10 10:13:21;;;;;;;3.35;1.20;;;13.50;79.50;;;;;;5082541;28;20426;-75
2023/03/10 10:15:52;;;;;;;3.08;1.40;;;13.30;79.50;;;;;;5069388;28;20427;-74
2023/03/10 10:18:25;;;;;;;3.00;1.10;;;13.10;80.20;;;;;;5069747;28;20416;-74
2023/03/10 10:20:57;;;;;;;4.18;1.27;;;13.10;80.60;;;;;;5072891;28;20426;-76
2023/03/10 10:23:31;;;;;;;2.70;1.10;;;13.20;80.80;;;;;;5074372;28;20421;-76
2023/03/10 10:26:07;;;;;;;2.85;1.00;;;13.40;79.10;;;;;;5069437;28;20430;-75
2023/03/10 10:28:41;;;;;;;2.23;1.00;;;13.50;76.90;;;;;;5068539;28;20431;-74
2023/03/10 10:31:15;;;;;;;2.40;1.07;;;13.50;73.60;;;;;;5063463;28;20473;-75
2023/03/10 10:34:01;;;;;;;3.42;1.17;;;13.40;75.20;;;;;;5065206;28;20463;-73
2023/03/10 10:36:30;;;;;;;3.17;1.27;;;13.40;76.00;;;;;;5062412;28;20431;-75
2023/03/10 10:38:58;;;;;;;2.70;1.20;;;13.30;77.00;;;;;;5075940;28;20414;-74
2023/03/10 10:41:29;;;;;;;2.13;0.90;;;13.20;78.20;;;;;;5077721;28;20994;-75
2023/03/10 10:44:05;;;;;;;3.10;1.08;;;13.20;78.00;;;;;;5064516;28;20479;-74
2023/03/10 10:46:32;;;;;;;3.33;0.90;;;13.20;78.80;;;;;;5065996;28;20431;-74
2023/03/10 10:49:17;;;;;;;2.90;0.80;;;13.00;79.50;;;;;;5066781;28;22225;-74
2023/03/10 10:51:56;;;;;;;2.78;1.00;;;12.90;81.40;;;;;;5068143;28;20440;-74
2023/03/10 10:54:27;;;;;;;2.93;0.87;;;12.80;79.60;;;;;;5064651;28;20519;-73
2023/03/10 10:56:57;;;;;;;3.88;1.20;;;12.70;80.90;;;;;;5060878;28;20435;-75
2023/03/10 10:59:28;;;;;;;3.00;1.20;;;12.70;81.80;;;;;;5070838;28;20435;-75
2023/03/10 11:01:57;;;;;;;1.60;0.85;;;12.70;81.00;;;;;;5063163;28;20435;-74
2023/03/10 11:04:26;;;;;;;1.90;0.90;;;12.70;81.90;;;;;;5061877;28;20446;-74
2023/03/10 11:07:08;;;;;;;2.30;0.90;;;12.80;82.30;;;;;;5062093;28;20435;-76
2023/03/10 11:09:34;;;;;;;2.17;0.85;;;12.80;80.20;;;;;;5065259;28;20415;-74
2023/03/10 11:12:06;;;;;;;2.50;0.90;;;12.80;82.10;;;;;;5059431;28;20445;-74
2023/03/10 11:14:43;;;;;;;2.10;0.70;;;12.70;84.40;;;;;;5066549;28;20485;-74
2023/03/10 11:17:16;;;;;;;1.30;0.70;;;12.50;90.50;;;;;;5060886;28;20443;-74
2023/03/10 11:19:56;;;;;;;1.97;0.90;;;12.20;92.80;;;;;;5064639;28;21101;-75
2023/03/10 11:22:33;;;;;;;1.92;0.85;;;11.70;96.60;;;;;;5066197;28;21131;-75
2023/03/10 11:25:05;;;;;;;1.73;0.63;;;11.50;98.70;;;;;;5067283;28;20458;-75
2023/03/10 11:27:47;;;;;;;2.03;0.90;;;11.30;97.70;;;;;;5069196;28;20415;-74
2023/03/10 11:30:18;;;;;;;2.10;0.80;;;11.20;98.20;;;;;;5064554;28;22521;-73
2023/03/10 11:32:57;;;;;;;2.22;0.90;;;11.10;99.70;;;;;;5060336;28;20443;-72
2023/03/10 11:35:28;;;;;;;1.33;0.70;;;11.00;99.90;;;;;;5063934;28;20550;-72
2023/03/10 11:38:05;;;;;;;1.40;0.73;;;10.80;99.90;;;;;;5066569;28;20457;-73
2023/03/10 11:40:39;;;;;;;2.53;0.90;;;10.60;99.90;;;;;;5069415;28;20438;-72
2023/03/10 11:43:15;;;;;;;1.50;0.80;;;10.40;99.90;;;;;;5064975;28;20431;-73
2023/03/10 11:45:51;;;;;;;2.10;1.00;;;10.30;99.90;;;;;;5067338;28;20431;-73
2023/03/10 11:48:31;;;;;;;1.83;0.98;;;10.20;99.90;;;;;;5058840;28;20431;-73
2023/03/10 11:51:00;;;;;;;1.90;0.95;;;10.10;99.90;;;;;;5069002;28;20679;-73
2023/03/10 11:53:34;;;;;;;2.72;1.20;;;9.90;99.90;;;;;;5069858;28;20447;-73
2023/03/10 11:56:02;;;;;;;3.17;1.20;;;9.80;99.90;;;;;;5068919;28;20491;-72
2023/03/10 11:58:39;;;;;;;2.38;1.10;;;9.80;99.90;;;;;;5085663;28;20430;-72
2023/03/10 12:01:08;;;;;;;4.38;1.35;;;9.70;99.90;;;;;;5073035;28;20430;-73
2023/03/10 12:03:42;;;;;;;3.63;1.30;;;9.70;99.90;;;;;;5068260;28;20412;-72
2023/03/10 12:06:12;;;;;;;2.67;1.35;;;9.70;99.90;;;;;;5066486;28;20431;-72
2023/03/10 12:08:40;;;;;;;1.60;0.80;;;9.70;99.90;;;;;;5070171;28;20420;-74
2023/03/10 12:11:14;;;;;;;3.20;1.20;;;9.70;99.90;;;;;;5075281;28;20438;-74
2023/03/10 12:13:46;;;;;;;2.00;0.98;;;9.80;99.90;;;;;;5064384;28;20455;-72
2023/03/10 12:16:18;;;;;;;2.40;1.10;;;9.80;99.90;;;;;;5074105;28;20590;-74
2023/03/10 12:18:45;;;;;;;2.80;1.00;;;9.80;99.90;;;;;;5069385;28;20427;-74
2023/03/10 12:21:15;;;;;;;1.88;1.02;;;9.90;99.90;;;;;;5072184;28;20427;-73
2023/03/10 12:23:43;;;;;;;1.70;0.82;;;9.90;99.90;;;;;;5069989;28;21009;-74
2023/03/10 12:26:10;;;;;;;2.58;1.00;;;9.90;99.90;;;;;;5073616;28;20766;-73
2023/03/10 12:28:37;;;;;;;1.70;0.80;;;9.80;99.90;;;;;;5063900;28;20434;-74
2023/03/10 12:31:06;;;;;;;2.78;0.70;;;9.70;99.90;;;;;;5070661;28;20437;-73
2023/03/10 12:33:53;;;;;;;1.70;0.60;;;9.70;99.90;;;;;;5064362;28;20526;-75
2023/03/10 12:36:33;;;;;;;1.20;0.70;;;9.60;99.90;;;;;;5063278;28;20443;-75
2023/03/10 12:39:01;;;;;;;1.77;0.70;;;9.60;99.90;;;;;;5099681;22;20878;-74
2023/03/10 12:41:45;;;;;;;2.60;0.80;;;9.60;99.90;;;;;;5033330;28;20443;-73
2023/03/10 12:44:35;;;;;;;1.60;0.75;;;9.70;99.90;;;;;;5040685;28;20433;-72
2023/03/10 12:47:19;;;;;;;1.58;0.80;;;9.70;99.90;;;;;;5040456;28;20435;-72
2023/03/10 12:49:52;;;;;;;1.00;0.70;;;9.70;99.90;;;;;;5035851;28;20438;-73
2023/03/10 12:52:26;;;;;;;1.40;0.80;;;9.80;99.90;;;;;;5023184;28;20434;-74
2023/03/10 12:55:02;;;;;;;1.50;0.85;;;9.80;99.90;;;;;;5029592;28;20458;-76
2023/03/10 12:57:34;;;;;;;2.30;1.20;;;9.80;99.90;;;;;;5023984;28;20510;-75
2023/03/10 13:00:05;;;;;;;1.92;1.10;;;9.80;99.90;;;;;;5029772;28;20898;-74
2023/03/10 13:02:47;;;;;;;1.70;1.00;;;9.80;99.90;;;;;;5022331;28;20435;-75